sensor_id;sensor_type;location;lat;lon;timestamp;temperature;humidity
5802;DHT22;2927;49.366;8.530;2024-03-02T00:00:38;6.30;55.80
5802;DHT22;2927;49.366;8.530;2024-03-02T00:03:06;6.30;1.00
5802;DHT22;2927;49.366;8.530;2024-03-02T00:05:32;6.20;1.00
5802;DHT22;2927;49.366;8.530;2024-03-02T00:07:58;6.20;1.00
5802;DHT22;2927;49.366;8.530;2024-03-02T00:10:26;6.20;1.00
5802;DHT22;2927;49.366;8.530;2024-03-02T00:12:55;6.20;1.00
5802;DHT22;2927;49.366;8.530;2024-03-02T00:15:48;6.20;1.00
5802;DHT22;2927;49.366;8.530;2024-03-02T00:18:19;6.20;1.00
5802;DHT22;2927;49.366;8.530;2024-03-02T00:20:45;6.30;1.00
5802;DHT22;2927;49.366;8.530;2024-03-02T00:23:16;6.30;99.90
5802;DHT22;2927;49.366;8.530;2024-03-02T00:25:44;6.30;99.90
5802;DHT22;2927;49.366;8.530;2024-03-02T00:28:24;6.40;1.00
5802;DHT22;2927;49.366;8.530;2024-03-02T00:33:24;6.30;1.00
5802;DHT22;2927;49.366;8.530;2024-03-02T00:35:51;6.30;1.00
5802;DHT22;2927;49.366;8.530;2024-03-02T00:38:17;6.30;1.00
5802;DHT22;2927;49.366;8.530;2024-03-02T00:40:43;6.30;99.90
5802;DHT22;2927;49.366;8.530;2024-03-02T00:45:47;6.30;99.90
5802;DHT22;2927;49.366;8.530;2024-03-02T00:48:15;6.30;99.90
5802;DHT22;2927;49.366;8.530;2024-03-02T00:50:41;6.30;1.00
5802;DHT22;2927;49.366;8.530;2024-03-02T00:53:10;6.20;99.90
5802;DHT22;2927;49.366;8.530;2024-03-02T00:55:37;6.20;99.90
5802;DHT22;2927;49.366;8.530;2024-03-02T00:58:03;6.20;1.00
5802;DHT22;2927;49.366;8.530;2024-03-02T01:00:28;6.10;1.00
5802;DHT22;2927;49.366;8.530;2024-03-02T01:02:54;6.00;1.00
5802;DHT22;2927;49.366;8.530;2024-03-02T01:05:20;5.80;99.90
5802;DHT22;2927;49.366;8.530;2024-03-02T01:07:45;5.70;1.00
5802;DHT22;2927;49.366;8.530;2024-03-02T01:10:11;5.70;1.00
5802;DHT22;2927;49.366;8.530;2024-03-02T01:12:37;5.60;1.00
5802;DHT22;2927;49.366;8.530;2024-03-02T01:15:02;5.60;1.00
5802;DHT22;2927;49.366;8.530;2024-03-02T01:17:31;5.60;1.00
5802;DHT22;2927;49.366;8.530;2024-03-02T01:19:56;5.40;1.00
5802;DHT22;2927;49.366;8.530;2024-03-02T01:22:23;5.30;55.00
5802;DHT22;2927;49.366;8.530;2024-03-02T01:24:51;5.20;99.90
5802;DHT22;2927;49.366;8.530;2024-03-02T01:27:16;5.00;99.90
5802;DHT22;2927;49.366;8.530;2024-03-02T01:29:42;4.90;1.00
5802;DHT22;2927;49.366;8.530;2024-03-02T01:32:07;4.90;1.00
5802;DHT22;2927;49.366;8.530;2024-03-02T01:34:33;4.80;1.00
5802;DHT22;2927;49.366;8.530;2024-03-02T01:36:58;4.90;1.00
5802;DHT22;2927;49.366;8.530;2024-03-02T01:39:24;4.90;1.00
5802;DHT22;2927;49.366;8.530;2024-03-02T01:41:49;4.90;1.00
5802;DHT22;2927;49.366;8.530;2024-03-02T01:44:15;5.10;1.00
5802;DHT22;2927;49.366;8.530;2024-03-02T01:46:40;5.10;1.00
5802;DHT22;2927;49.366;8.530;2024-03-02T01:49:06;5.10;1.00
5802;DHT22;2927;49.366;8.530;2024-03-02T01:51:32;5.20;1.00
5802;DHT22;2927;49.366;8.530;2024-03-02T01:53:57;5.10;1.00
5802;DHT22;2927;49.366;8.530;2024-03-02T01:56:23;5.20;1.00
5802;DHT22;2927;49.366;8.530;2024-03-02T01:58:49;5.30;1.00
5802;DHT22;2927;49.366;8.530;2024-03-02T02:01:15;5.40;1.00
5802;DHT22;2927;49.366;8.530;2024-03-02T02:03:43;5.40;1.00
5802;DHT22;2927;49.366;8.530;2024-03-02T02:06:09;5.40;1.00
5802;DHT22;2927;49.366;8.530;2024-03-02T02:08:36;5.50;1.00
5802;DHT22;2927;49.366;8.530;2024-03-02T02:11:02;5.50;1.00
5802;DHT22;2927;49.366;8.530;2024-03-02T02:13:28;5.60;1.00
5802;DHT22;2927;49.366;8.530;2024-03-02T02:15:53;5.60;1.00
5802;DHT22;2927;49.366;8.530;2024-03-02T02:18:19;5.50;1.00
5802;DHT22;2927;49.366;8.530;2024-03-02T02:20:44;5.50;1.00
5802;DHT22;2927;49.366;8.530;2024-03-02T02:23:10;5.50;1.00
5802;DHT22;2927;49.366;8.530;2024-03-02T02:25:35;5.50;99.90
5802;DHT22;2927;49.366;8.530;2024-03-02T02:28:01;5.50;99.90
5802;DHT22;2927;49.366;8.530;2024-03-02T02:30:29;5.50;99.90
5802;DHT22;2927;49.366;8.530;2024-03-02T02:32:55;5.50;99.90
5802;DHT22;2927;49.366;8.530;2024-03-02T02:35:21;5.50;99.90
5802;DHT22;2927;49.366;8.530;2024-03-02T02:37:47;5.50;99.90
5802;DHT22;2927;49.366;8.530;2024-03-02T02:40:14;5.40;99.90
5802;DHT22;2927;49.366;8.530;2024-03-02T02:42:39;5.50;99.90
5802;DHT22;2927;49.366;8.530;2024-03-02T02:45:08;5.40;1.00
5802;DHT22;2927;49.366;8.530;2024-03-02T02:47:34;5.40;23.10
5802;DHT22;2927;49.366;8.530;2024-03-02T02:50:03;5.40;99.90
5802;DHT22;2927;49.366;8.530;2024-03-02T02:52:36;5.30;90.00
5802;DHT22;2927;49.366;8.530;2024-03-02T02:55:04;5.30;99.90
5802;DHT22;2927;49.366;8.530;2024-03-02T02:57:32;5.20;99.90
5802;DHT22;2927;49.366;8.530;2024-03-02T03:00:01;5.20;99.90
5802;DHT22;2927;49.366;8.530;2024-03-02T03:02:30;5.10;99.90
5802;DHT22;2927;49.366;8.530;2024-03-02T03:04:56;4.90;98.10
5802;DHT22;2927;49.366;8.530;2024-03-02T03:07:22;4.70;99.90
5802;DHT22;2927;49.366;8.530;2024-03-02T03:09:48;4.60;1.00
5802;DHT22;2927;49.366;8.530;2024-03-02T03:12:14;4.50;1.00
5802;DHT22;2927;49.366;8.530;2024-03-02T03:14:40;4.50;1.00
5802;DHT22;2927;49.366;8.530;2024-03-02T03:17:06;4.50;1.00
5802;DHT22;2927;49.366;8.530;2024-03-02T03:19:33;4.50;1.00
5802;DHT22;2927;49.366;8.530;2024-03-02T03:21:59;4.50;1.00
5802;DHT22;2927;49.366;8.530;2024-03-02T03:24:24;4.60;1.00
5802;DHT22;2927;49.366;8.530;2024-03-02T03:26:50;4.60;1.00
5802;DHT22;2927;49.366;8.530;2024-03-02T03:29:15;4.70;1.00
5802;DHT22;2927;49.366;8.530;2024-03-02T03:31:41;4.70;1.00
5802;DHT22;2927;49.366;8.530;2024-03-02T03:34:06;4.70;1.00
5802;DHT22;2927;49.366;8.530;2024-03-02T03:36:32;4.70;1.00
5802;DHT22;2927;49.366;8.530;2024-03-02T03:38:57;4.70;1.00
5802;DHT22;2927;49.366;8.530;2024-03-02T03:41:23;4.70;1.00
5802;DHT22;2927;49.366;8.530;2024-03-02T03:43:49;4.80;1.00
5802;DHT22;2927;49.366;8.530;2024-03-02T03:46:15;4.90;1.00
5802;DHT22;2927;49.366;8.530;2024-03-02T03:48:40;4.90;1.00
5802;DHT22;2927;49.366;8.530;2024-03-02T03:51:07;4.90;1.00
5802;DHT22;2927;49.366;8.530;2024-03-02T03:53:32;4.90;1.00
5802;DHT22;2927;49.366;8.530;2024-03-02T03:55:58;5.00;1.00
5802;DHT22;2927;49.366;8.530;2024-03-02T03:58:23;5.10;1.00
5802;DHT22;2927;49.366;8.530;2024-03-02T04:00:49;4.90;1.00
5802;DHT22;2927;49.366;8.530;2024-03-02T04:03:14;4.90;1.00
5802;DHT22;2927;49.366;8.530;2024-03-02T04:05:40;4.80;1.00
5802;DHT22;2927;49.366;8.530;2024-03-02T04:08:06;4.60;1.00
5802;DHT22;2927;49.366;8.530;2024-03-02T04:10:31;4.50;1.00
5802;DHT22;2927;49.366;8.530;2024-03-02T04:12:57;4.50;1.00
5802;DHT22;2927;49.366;8.530;2024-03-02T04:15:22;4.60;1.00
5802;DHT22;2927;49.366;8.530;2024-03-02T04:17:48;4.50;1.00
5802;DHT22;2927;49.366;8.530;2024-03-02T04:20:14;4.50;1.00
5802;DHT22;2927;49.366;8.530;2024-03-02T04:22:39;4.50;1.00
5802;DHT22;2927;49.366;8.530;2024-03-02T04:25:05;4.40;1.00
5802;DHT22;2927;49.366;8.530;2024-03-02T04:27:32;4.40;1.00
5802;DHT22;2927;49.366;8.530;2024-03-02T04:29:58;4.40;1.00
5802;DHT22;2927;49.366;8.530;2024-03-02T04:32:26;4.40;1.00
5802;DHT22;2927;49.366;8.530;2024-03-02T04:34:51;4.30;1.00
5802;DHT22;2927;49.366;8.530;2024-03-02T04:37:17;4.20;1.00
5802;DHT22;2927;49.366;8.530;2024-03-02T04:39:42;4.20;1.00
5802;DHT22;2927;49.366;8.530;2024-03-02T04:42:08;4.10;1.00
5802;DHT22;2927;49.366;8.530;2024-03-02T04:44:33;4.00;1.00
5802;DHT22;2927;49.366;8.530;2024-03-02T04:46:59;3.90;1.00
5802;DHT22;2927;49.366;8.530;2024-03-02T04:49:24;3.80;1.00
5802;DHT22;2927;49.366;8.530;2024-03-02T04:51:50;3.70;1.00
5802;DHT22;2927;49.366;8.530;2024-03-02T04:54:16;3.60;5.70
5802;DHT22;2927;49.366;8.530;2024-03-02T04:56:42;3.50;30.80
5802;DHT22;2927;49.366;8.530;2024-03-02T04:59:15;3.40;63.50
5802;DHT22;2927;49.366;8.530;2024-03-02T05:01:40;3.40;99.90
5802;DHT22;2927;49.366;8.530;2024-03-02T05:04:06;3.40;99.90
5802;DHT22;2927;49.366;8.530;2024-03-02T05:06:31;3.40;99.90
5802;DHT22;2927;49.366;8.530;2024-03-02T05:08:57;3.40;99.90
5802;DHT22;2927;49.366;8.530;2024-03-02T05:11:22;3.30;99.90
5802;DHT22;2927;49.366;8.530;2024-03-02T05:14:06;3.20;99.90
5802;DHT22;2927;49.366;8.530;2024-03-02T05:16:35;3.20;99.90
5802;DHT22;2927;49.366;8.530;2024-03-02T05:19:02;3.20;99.90
5802;DHT22;2927;49.366;8.530;2024-03-02T05:21:27;3.20;99.90
5802;DHT22;2927;49.366;8.530;2024-03-02T05:23:53;3.30;99.90
5802;DHT22;2927;49.366;8.530;2024-03-02T05:26:20;3.40;99.90
5802;DHT22;2927;49.366;8.530;2024-03-02T05:28:46;3.40;99.90
5802;DHT22;2927;49.366;8.530;2024-03-02T05:31:11;3.40;99.90
5802;DHT22;2927;49.366;8.530;2024-03-02T05:33:40;3.40;99.90
5802;DHT22;2927;49.366;8.530;2024-03-02T05:36:05;3.40;99.90
5802;DHT22;2927;49.366;8.530;2024-03-02T05:38:32;3.40;99.90
5802;DHT22;2927;49.366;8.530;2024-03-02T05:40:57;3.50;99.90
5802;DHT22;2927;49.366;8.530;2024-03-02T05:43:23;3.50;99.90
5802;DHT22;2927;49.366;8.530;2024-03-02T05:45:48;3.50;99.90
5802;DHT22;2927;49.366;8.530;2024-03-02T05:48:14;3.50;99.90
5802;DHT22;2927;49.366;8.530;2024-03-02T05:50:40;3.50;99.90
5802;DHT22;2927;49.366;8.530;2024-03-02T05:53:05;3.50;99.90
5802;DHT22;2927;49.366;8.530;2024-03-02T05:55:31;3.50;99.90
5802;DHT22;2927;49.366;8.530;2024-03-02T05:57:56;3.50;99.90
5802;DHT22;2927;49.366;8.530;2024-03-02T06:00:44;3.50;99.90
5802;DHT22;2927;49.366;8.530;2024-03-02T06:03:10;3.40;99.90
5802;DHT22;2927;49.366;8.530;2024-03-02T06:05:36;3.40;99.90
5802;DHT22;2927;49.366;8.530;2024-03-02T06:08:01;3.50;99.90
5802;DHT22;2927;49.366;8.530;2024-03-02T06:10:27;3.40;99.90
5802;DHT22;2927;49.366;8.530;2024-03-02T06:12:52;3.30;99.90
5802;DHT22;2927;49.366;8.530;2024-03-02T06:15:18;3.20;99.90
5802;DHT22;2927;49.366;8.530;2024-03-02T06:17:44;3.20;99.90
5802;DHT22;2927;49.366;8.530;2024-03-02T06:20:09;3.30;99.90
5802;DHT22;2927;49.366;8.530;2024-03-02T06:22:36;3.40;99.90
5802;DHT22;2927;49.366;8.530;2024-03-02T06:25:03;3.60;99.90
5802;DHT22;2927;49.366;8.530;2024-03-02T06:27:29;3.60;99.90
5802;DHT22;2927;49.366;8.530;2024-03-02T06:29:54;3.60;99.90
5802;DHT22;2927;49.366;8.530;2024-03-02T06:32:20;3.60;99.90
5802;DHT22;2927;49.366;8.530;2024-03-02T06:34:45;3.50;99.90
5802;DHT22;2927;49.366;8.530;2024-03-02T06:37:11;3.60;99.90
5802;DHT22;2927;49.366;8.530;2024-03-02T06:39:36;3.60;99.90
5802;DHT22;2927;49.366;8.530;2024-03-02T06:42:02;3.80;99.90
5802;DHT22;2927;49.366;8.530;2024-03-02T06:44:28;3.90;99.90
5802;DHT22;2927;49.366;8.530;2024-03-02T06:46:53;3.90;99.90
5802;DHT22;2927;49.366;8.530;2024-03-02T06:49:19;3.90;99.90
5802;DHT22;2927;49.366;8.530;2024-03-02T06:51:44;3.90;99.90
5802;DHT22;2927;49.366;8.530;2024-03-02T06:54:10;3.90;99.90
5802;DHT22;2927;49.366;8.530;2024-03-02T06:56:36;3.90;99.90
5802;DHT22;2927;49.366;8.530;2024-03-02T06:59:01;3.90;94.20
5802;DHT22;2927;49.366;8.530;2024-03-02T07:01:27;3.90;73.20
5802;DHT22;2927;49.366;8.530;2024-03-02T07:03:53;4.00;93.20
5802;DHT22;2927;49.366;8.530;2024-03-02T07:06:19;4.10;69.10
5802;DHT22;2927;49.366;8.530;2024-03-02T07:08:44;4.10;27.90
5802;DHT22;2927;49.366;8.530;2024-03-02T07:11:10;4.10;1.00
5802;DHT22;2927;49.366;8.530;2024-03-02T07:13:35;4.00;1.00
5802;DHT22;2927;49.366;8.530;2024-03-02T07:16:01;4.10;1.00
5802;DHT22;2927;49.366;8.530;2024-03-02T07:18:30;4.20;1.00
5802;DHT22;2927;49.366;8.530;2024-03-02T07:20:59;4.20;1.00
5802;DHT22;2927;49.366;8.530;2024-03-02T07:23:26;4.30;1.00
5802;DHT22;2927;49.366;8.530;2024-03-02T07:25:53;4.40;1.00
5802;DHT22;2927;49.366;8.530;2024-03-02T07:28:22;4.60;1.00
5802;DHT22;2927;49.366;8.530;2024-03-02T07:30:58;5.00;1.00
5802;DHT22;2927;49.366;8.530;2024-03-02T07:33:24;6.40;1.00
5802;DHT22;2927;49.366;8.530;2024-03-02T07:35:49;8.10;1.00
5802;DHT22;2927;49.366;8.530;2024-03-02T07:38:15;10.10;1.00
5802;DHT22;2927;49.366;8.530;2024-03-02T07:40:40;11.10;1.00
5802;DHT22;2927;49.366;8.530;2024-03-02T07:43:06;11.80;1.00
5802;DHT22;2927;49.366;8.530;2024-03-02T07:45:31;12.40;1.00
5802;DHT22;2927;49.366;8.530;2024-03-02T07:47:57;13.00;99.90
5802;DHT22;2927;49.366;8.530;2024-03-02T07:50:23;13.40;99.90
5802;DHT22;2927;49.366;8.530;2024-03-02T07:52:48;14.00;99.90
5802;DHT22;2927;49.366;8.530;2024-03-02T07:55:14;14.70;99.90
5802;DHT22;2927;49.366;8.530;2024-03-02T07:57:40;15.80;99.90
5802;DHT22;2927;49.366;8.530;2024-03-02T08:00:06;15.90;99.90
5802;DHT22;2927;49.366;8.530;2024-03-02T08:02:32;16.20;99.90
5802;DHT22;2927;49.366;8.530;2024-03-02T08:04:57;16.10;98.00
5802;DHT22;2927;49.366;8.530;2024-03-02T08:07:23;16.50;78.90
5802;DHT22;2927;49.366;8.530;2024-03-02T08:09:48;16.60;56.80
5802;DHT22;2927;49.366;8.530;2024-03-02T08:12:14;16.80;44.40
5802;DHT22;2927;49.366;8.530;2024-03-02T08:14:39;17.10;29.80
5802;DHT22;2927;49.366;8.530;2024-03-02T08:17:05;17.70;13.60
5802;DHT22;2927;49.366;8.530;2024-03-02T08:19:36;17.00;5.90
5802;DHT22;2927;49.366;8.530;2024-03-02T08:22:02;16.30;7.80
5802;DHT22;2927;49.366;8.530;2024-03-02T08:24:27;15.60;20.50
5802;DHT22;2927;49.366;8.530;2024-03-02T08:26:53;14.70;25.30
5802;DHT22;2927;49.366;8.530;2024-03-02T08:29:18;13.90;47.00
5802;DHT22;2927;49.366;8.530;2024-03-02T08:31:44;13.00;99.90
5802;DHT22;2927;49.366;8.530;2024-03-02T08:34:09;12.30;99.90
5802;DHT22;2927;49.366;8.530;2024-03-02T08:36:35;11.80;99.90
5802;DHT22;2927;49.366;8.530;2024-03-02T08:39:01;11.50;99.90
5802;DHT22;2927;49.366;8.530;2024-03-02T08:41:27;11.60;99.90
5802;DHT22;2927;49.366;8.530;2024-03-02T08:43:53;11.80;99.90
5802;DHT22;2927;49.366;8.530;2024-03-02T08:46:18;11.90;99.90
5802;DHT22;2927;49.366;8.530;2024-03-02T08:48:44;11.80;99.90
5802;DHT22;2927;49.366;8.530;2024-03-02T08:51:10;12.30;99.90
5802;DHT22;2927;49.366;8.530;2024-03-02T08:53:36;13.10;99.90
5802;DHT22;2927;49.366;8.530;2024-03-02T08:56:02;13.50;99.90
5802;DHT22;2927;49.366;8.530;2024-03-02T08:58:27;14.40;99.90
5802;DHT22;2927;49.366;8.530;2024-03-02T09:00:53;14.30;73.60
5802;DHT22;2927;49.366;8.530;2024-03-02T09:03:18;14.10;74.40
5802;DHT22;2927;49.366;8.530;2024-03-02T09:05:44;15.90;55.90
5802;DHT22;2927;49.366;8.530;2024-03-02T09:08:10;16.90;1.00
5802;DHT22;2927;49.366;8.530;2024-03-02T09:10:35;17.80;1.00
5802;DHT22;2927;49.366;8.530;2024-03-02T09:13:01;18.70;1.00
5802;DHT22;2927;49.366;8.530;2024-03-02T09:15:27;18.80;1.00
5802;DHT22;2927;49.366;8.530;2024-03-02T09:17:52;18.40;1.00
5802;DHT22;2927;49.366;8.530;2024-03-02T09:20:18;18.30;1.00
5802;DHT22;2927;49.366;8.530;2024-03-02T09:22:43;18.80;1.00
5802;DHT22;2927;49.366;8.530;2024-03-02T09:25:09;18.60;1.00
5802;DHT22;2927;49.366;8.530;2024-03-02T09:27:38;18.30;1.00
5802;DHT22;2927;49.366;8.530;2024-03-02T09:30:07;18.30;1.00
5802;DHT22;2927;49.366;8.530;2024-03-02T09:32:33;18.60;1.00
5802;DHT22;2927;49.366;8.530;2024-03-02T09:34:58;18.80;1.00
5802;DHT22;2927;49.366;8.530;2024-03-02T09:37:24;19.30;1.00
5802;DHT22;2927;49.366;8.530;2024-03-02T09:39:49;19.60;1.00
5802;DHT22;2927;49.366;8.530;2024-03-02T09:42:15;19.40;1.00
5802;DHT22;2927;49.366;8.530;2024-03-02T09:44:42;19.70;1.00
5802;DHT22;2927;49.366;8.530;2024-03-02T09:47:07;19.90;1.00
5802;DHT22;2927;49.366;8.530;2024-03-02T09:49:34;19.80;1.00
5802;DHT22;2927;49.366;8.530;2024-03-02T09:52:00;19.40;1.00
5802;DHT22;2927;49.366;8.530;2024-03-02T09:54:26;19.00;1.00
5802;DHT22;2927;49.366;8.530;2024-03-02T09:56:52;18.00;1.00
5802;DHT22;2927;49.366;8.530;2024-03-02T09:59:18;17.10;1.00
5802;DHT22;2927;49.366;8.530;2024-03-02T10:02:04;16.10;1.00
5802;DHT22;2927;49.366;8.530;2024-03-02T10:04:32;15.80;1.00
5802;DHT22;2927;49.366;8.530;2024-03-02T10:09:37;15.00;1.00
5802;DHT22;2927;49.366;8.530;2024-03-02T10:12:07;14.40;1.00
5802;DHT22;2927;49.366;8.530;2024-03-02T10:14:33;14.30;1.00
5802;DHT22;2927;49.366;8.530;2024-03-02T10:17:07;14.20;1.00
5802;DHT22;2927;49.366;8.530;2024-03-02T10:19:33;14.10;1.00
5802;DHT22;2927;49.366;8.530;2024-03-02T10:22:01;14.20;1.00
5802;DHT22;2927;49.366;8.530;2024-03-02T10:24:28;14.10;1.00
5802;DHT22;2927;49.366;8.530;2024-03-02T10:26:59;14.20;1.00
5802;DHT22;2927;49.366;8.530;2024-03-02T10:29:25;14.10;1.00
5802;DHT22;2927;49.366;8.530;2024-03-02T10:31:54;14.20;1.00
5802;DHT22;2927;49.366;8.530;2024-03-02T10:34:19;14.30;1.00
5802;DHT22;2927;49.366;8.530;2024-03-02T10:36:47;14.50;1.00
5802;DHT22;2927;49.366;8.530;2024-03-02T10:39:14;14.80;1.00
5802;DHT22;2927;49.366;8.530;2024-03-02T10:41:40;14.40;1.00
5802;DHT22;2927;49.366;8.530;2024-03-02T10:44:07;14.60;1.00
5802;DHT22;2927;49.366;8.530;2024-03-02T10:46:35;14.50;1.00
5802;DHT22;2927;49.366;8.530;2024-03-02T10:49:04;14.40;1.00
5802;DHT22;2927;49.366;8.530;2024-03-02T10:51:31;14.40;1.00
5802;DHT22;2927;49.366;8.530;2024-03-02T10:54:00;14.40;1.00
5802;DHT22;2927;49.366;8.530;2024-03-02T10:56:31;14.20;1.00
5802;DHT22;2927;49.366;8.530;2024-03-02T11:01:34;14.10;1.00
5802;DHT22;2927;49.366;8.530;2024-03-02T11:04:04;14.20;1.00
5802;DHT22;2927;49.366;8.530;2024-03-02T11:06:34;14.10;1.00
5802;DHT22;2927;49.366;8.530;2024-03-02T11:09:06;14.20;1.00
5802;DHT22;2927;49.366;8.530;2024-03-02T11:11:37;14.40;1.00
5802;DHT22;2927;49.366;8.530;2024-03-02T11:14:04;14.40;1.00
5802;DHT22;2927;49.366;8.530;2024-03-02T11:16:38;14.50;1.00
5802;DHT22;2927;49.366;8.530;2024-03-02T11:19:13;14.40;1.00
5802;DHT22;2927;49.366;8.530;2024-03-02T11:21:39;14.40;1.00
5802;DHT22;2927;49.366;8.530;2024-03-02T11:26:50;14.50;1.00
5802;DHT22;2927;49.366;8.530;2024-03-02T11:32:03;14.30;1.00
5802;DHT22;2927;49.366;8.530;2024-03-02T11:34:34;14.30;1.00
5802;DHT22;2927;49.366;8.530;2024-03-02T11:37:01;14.40;1.00
5802;DHT22;2927;49.366;8.530;2024-03-02T11:39:27;14.40;1.00
5802;DHT22;2927;49.366;8.530;2024-03-02T11:41:54;14.40;1.00
5802;DHT22;2927;49.366;8.530;2024-03-02T11:44:20;14.40;1.00
5802;DHT22;2927;49.366;8.530;2024-03-02T11:46:51;14.70;1.00
5802;DHT22;2927;49.366;8.530;2024-03-02T11:49:36;14.50;1.00
5802;DHT22;2927;49.366;8.530;2024-03-02T11:52:05;14.60;1.00
5802;DHT22;2927;49.366;8.530;2024-03-02T11:54:32;14.60;1.00
5802;DHT22;2927;49.366;8.530;2024-03-02T11:57:02;14.50;1.00
5802;DHT22;2927;49.366;8.530;2024-03-02T11:59:29;14.60;1.00
5802;DHT22;2927;49.366;8.530;2024-03-02T12:01:58;14.90;1.00
5802;DHT22;2927;49.366;8.530;2024-03-02T12:04:25;15.10;1.00
5802;DHT22;2927;49.366;8.530;2024-03-02T12:07:01;15.10;1.00
5802;DHT22;2927;49.366;8.530;2024-03-02T12:09:30;15.10;1.00
5802;DHT22;2927;49.366;8.530;2024-03-02T12:12:22;15.10;1.00
5802;DHT22;2927;49.366;8.530;2024-03-02T12:14:52;14.90;1.00
5802;DHT22;2927;49.366;8.530;2024-03-02T12:17:18;14.80;1.00
5802;DHT22;2927;49.366;8.530;2024-03-02T12:19:44;14.80;1.00
5802;DHT22;2927;49.366;8.530;2024-03-02T12:22:11;14.90;1.00
5802;DHT22;2927;49.366;8.530;2024-03-02T12:24:37;15.20;1.00
5802;DHT22;2927;49.366;8.530;2024-03-02T12:27:03;15.50;1.00
5802;DHT22;2927;49.366;8.530;2024-03-02T12:29:30;15.50;1.00
5802;DHT22;2927;49.366;8.530;2024-03-02T12:31:55;15.40;1.00
5802;DHT22;2927;49.366;8.530;2024-03-02T12:34:22;15.40;1.00
5802;DHT22;2927;49.366;8.530;2024-03-02T12:36:48;15.20;1.00
5802;DHT22;2927;49.366;8.530;2024-03-02T12:39:18;15.20;1.00
5802;DHT22;2927;49.366;8.530;2024-03-02T12:41:44;15.30;1.00
5802;DHT22;2927;49.366;8.530;2024-03-02T12:44:10;15.30;1.00
5802;DHT22;2927;49.366;8.530;2024-03-02T12:46:35;15.20;1.00
5802;DHT22;2927;49.366;8.530;2024-03-02T12:49:09;15.20;1.00
5802;DHT22;2927;49.366;8.530;2024-03-02T12:51:36;15.20;1.00
5802;DHT22;2927;49.366;8.530;2024-03-02T12:54:03;15.40;1.00
5802;DHT22;2927;49.366;8.530;2024-03-02T12:56:29;15.20;1.00
5802;DHT22;2927;49.366;8.530;2024-03-02T12:58:55;15.20;1.00
5802;DHT22;2927;49.366;8.530;2024-03-02T13:01:21;15.20;1.00
5802;DHT22;2927;49.366;8.530;2024-03-02T13:03:49;15.10;1.00
5802;DHT22;2927;49.366;8.530;2024-03-02T13:06:16;15.20;1.00
5802;DHT22;2927;49.366;8.530;2024-03-02T13:08:42;15.10;1.00
5802;DHT22;2927;49.366;8.530;2024-03-02T13:11:08;15.00;1.00
5802;DHT22;2927;49.366;8.530;2024-03-02T13:13:33;15.20;1.00
5802;DHT22;2927;49.366;8.530;2024-03-02T13:16:00;15.30;1.00
5802;DHT22;2927;49.366;8.530;2024-03-02T13:18:25;15.30;1.00
5802;DHT22;2927;49.366;8.530;2024-03-02T13:20:52;15.40;1.00
5802;DHT22;2927;49.366;8.530;2024-03-02T13:23:17;15.40;1.00
5802;DHT22;2927;49.366;8.530;2024-03-02T13:25:43;15.40;1.00
5802;DHT22;2927;49.366;8.530;2024-03-02T13:28:08;15.50;1.00
5802;DHT22;2927;49.366;8.530;2024-03-02T13:30:36;15.50;1.00
5802;DHT22;2927;49.366;8.530;2024-03-02T13:33:01;15.60;1.00
5802;DHT22;2927;49.366;8.530;2024-03-02T13:35:27;15.60;1.00
5802;DHT22;2927;49.366;8.530;2024-03-02T13:37:52;15.50;1.00
5802;DHT22;2927;49.366;8.530;2024-03-02T13:40:18;15.40;1.00
5802;DHT22;2927;49.366;8.530;2024-03-02T13:42:46;15.50;1.00
5802;DHT22;2927;49.366;8.530;2024-03-02T13:45:15;15.60;1.00
5802;DHT22;2927;49.366;8.530;2024-03-02T13:47:41;15.50;1.00
5802;DHT22;2927;49.366;8.530;2024-03-02T13:50:07;15.60;1.00
5802;DHT22;2927;49.366;8.530;2024-03-02T13:52:33;15.60;1.00
5802;DHT22;2927;49.366;8.530;2024-03-02T13:54:58;15.60;1.00
5802;DHT22;2927;49.366;8.530;2024-03-02T13:57:24;15.60;1.00
5802;DHT22;2927;49.366;8.530;2024-03-02T13:59:50;15.60;1.00
5802;DHT22;2927;49.366;8.530;2024-03-02T14:02:17;15.60;1.00
5802;DHT22;2927;49.366;8.530;2024-03-02T14:04:43;15.60;1.00
5802;DHT22;2927;49.366;8.530;2024-03-02T14:07:08;15.70;1.00
5802;DHT22;2927;49.366;8.530;2024-03-02T14:09:34;15.60;1.00
5802;DHT22;2927;49.366;8.530;2024-03-02T14:12:00;15.50;1.00
5802;DHT22;2927;49.366;8.530;2024-03-02T14:14:26;15.40;1.00
5802;DHT22;2927;49.366;8.530;2024-03-02T14:16:52;15.40;1.00
5802;DHT22;2927;49.366;8.530;2024-03-02T14:19:20;15.40;1.00
5802;DHT22;2927;49.366;8.530;2024-03-02T14:21:47;15.40;1.00
5802;DHT22;2927;49.366;8.530;2024-03-02T14:24:13;15.40;1.00
5802;DHT22;2927;49.366;8.530;2024-03-02T14:26:39;15.40;1.00
5802;DHT22;2927;49.366;8.530;2024-03-02T14:29:05;15.30;1.00
5802;DHT22;2927;49.366;8.530;2024-03-02T14:31:31;15.30;1.00
5802;DHT22;2927;49.366;8.530;2024-03-02T14:33:57;15.40;1.00
5802;DHT22;2927;49.366;8.530;2024-03-02T14:36:22;15.50;1.00
5802;DHT22;2927;49.366;8.530;2024-03-02T14:38:48;15.50;1.00
5802;DHT22;2927;49.366;8.530;2024-03-02T14:41:14;15.50;1.00
5802;DHT22;2927;49.366;8.530;2024-03-02T14:43:40;15.60;1.00
5802;DHT22;2927;49.366;8.530;2024-03-02T14:46:06;15.60;1.00
5802;DHT22;2927;49.366;8.530;2024-03-02T14:48:35;15.60;1.00
5802;DHT22;2927;49.366;8.530;2024-03-02T14:51:00;15.70;1.00
5802;DHT22;2927;49.366;8.530;2024-03-02T14:53:26;15.80;1.00
5802;DHT22;2927;49.366;8.530;2024-03-02T14:55:52;15.80;1.00
5802;DHT22;2927;49.366;8.530;2024-03-02T14:58:17;15.70;1.00
5802;DHT22;2927;49.366;8.530;2024-03-02T15:00:43;15.60;1.00
5802;DHT22;2927;49.366;8.530;2024-03-02T15:03:09;15.60;1.00
5802;DHT22;2927;49.366;8.530;2024-03-02T15:05:35;15.40;1.00
5802;DHT22;2927;49.366;8.530;2024-03-02T15:08:00;15.40;1.00
5802;DHT22;2927;49.366;8.530;2024-03-02T15:10:29;15.20;1.00
5802;DHT22;2927;49.366;8.530;2024-03-02T15:12:55;15.10;1.00
5802;DHT22;2927;49.366;8.530;2024-03-02T15:15:20;15.00;1.00
5802;DHT22;2927;49.366;8.530;2024-03-02T15:17:46;14.90;1.00
5802;DHT22;2927;49.366;8.530;2024-03-02T15:20:11;15.00;1.00
5802;DHT22;2927;49.366;8.530;2024-03-02T15:22:37;14.90;1.00
5802;DHT22;2927;49.366;8.530;2024-03-02T15:25:03;14.90;1.00
5802;DHT22;2927;49.366;8.530;2024-03-02T15:27:28;14.90;1.00
5802;DHT22;2927;49.366;8.530;2024-03-02T15:29:54;14.90;1.00
5802;DHT22;2927;49.366;8.530;2024-03-02T15:32:22;14.80;1.00
5802;DHT22;2927;49.366;8.530;2024-03-02T15:34:48;14.70;1.00
5802;DHT22;2927;49.366;8.530;2024-03-02T15:37:13;14.70;1.00
5802;DHT22;2927;49.366;8.530;2024-03-02T15:39:39;14.70;1.00
5802;DHT22;2927;49.366;8.530;2024-03-02T15:42:05;14.70;1.00
5802;DHT22;2927;49.366;8.530;2024-03-02T15:44:31;14.60;1.00
5802;DHT22;2927;49.366;8.530;2024-03-02T15:46:57;14.50;1.00
5802;DHT22;2927;49.366;8.530;2024-03-02T15:49:24;14.50;1.00
5802;DHT22;2927;49.366;8.530;2024-03-02T15:51:49;14.40;1.00
5802;DHT22;2927;49.366;8.530;2024-03-02T15:54:15;14.40;1.00
5802;DHT22;2927;49.366;8.530;2024-03-02T15:56:40;14.40;1.00
5802;DHT22;2927;49.366;8.530;2024-03-02T15:59:06;14.30;1.00
5802;DHT22;2927;49.366;8.530;2024-03-02T16:01:32;14.20;1.00
5802;DHT22;2927;49.366;8.530;2024-03-02T16:03:58;14.10;1.00
5802;DHT22;2927;49.366;8.530;2024-03-02T16:06:24;14.00;1.00
5802;DHT22;2927;49.366;8.530;2024-03-02T16:08:49;14.00;1.00
5802;DHT22;2927;49.366;8.530;2024-03-02T16:11:16;13.90;1.00
5802;DHT22;2927;49.366;8.530;2024-03-02T16:13:42;13.80;1.00
5802;DHT22;2927;49.366;8.530;2024-03-02T16:16:07;13.70;1.00
5802;DHT22;2927;49.366;8.530;2024-03-02T16:18:33;13.70;1.00
5802;DHT22;2927;49.366;8.530;2024-03-02T16:20:59;13.60;1.00
5802;DHT22;2927;49.366;8.530;2024-03-02T16:23:25;13.60;1.00
5802;DHT22;2927;49.366;8.530;2024-03-02T16:25:50;13.60;1.00
5802;DHT22;2927;49.366;8.530;2024-03-02T16:28:16;13.60;1.00
5802;DHT22;2927;49.366;8.530;2024-03-02T16:30:41;13.60;1.00
5802;DHT22;2927;49.366;8.530;2024-03-02T16:33:07;13.60;1.00